SBRF METAR and TAF | Updated Today

SBRF METAR

Guararapes - Gilberto Freyre International Airport

Observation time: 22 min. ago

SBRF 200700Z 32005KT 9999 FEW022 BKN100 26/24 Q1013

Need help? Read our tutorial on how to read METARs or read the parsed version below.

Guararapes - Gilberto Freyre International Airport (SBRF) METAR

  • Weather conditions on Fri, 20 May 2022 07:00:00 +0000 (22 min. ago):
  • Present conditions: Dry
  • Clouds: A few at 671 meters; broken sky at 3048 meters
  • Visibility: Greater than 10 km
  • Wind: 320 degrees at 5 knots
  • Temperature: 26 celsius
  • Dew point: 24 celsius
  • Pressure: 1013 millibars
  • Remarks: None


Useful to know...

SBRF TAF

Guararapes - Gilberto Freyre International Airport

TAF SBRF 200900Z 1912/2012 06007KT 9999 SCT020 TX30/1916Z TN24/2009Z BECMG 2002/2004 31005KT SCT017 RMK PGU
Observation time: -98 min. ago
Need help? Read our tutorial on how to read TAFs or read the parsed version below.

Parsed version of TAF for Guararapes - Gilberto Freyre International Airport (SBRF)

  • From 19 May at 12:00 UTC, to day 20 of the month at 12:00 UTC
  • Clouds: Scattered at 610 meters
  • Visibility: Greater than 10 km
  • Wind: 60 degrees at 7
  • Expected to arise soon, from 20 May at 02:00 UTC, to day 20 of the month at 04:00 UTC
  • Clouds: Scattered at 518 meters
  • Wind: 310 degrees at 5

Airports near SBRF

No airports found within 100nm radius.